createdAt,value
2023-01-03T00:02:04.343Z,67.28
2023-01-03T00:07:34.307Z,67.42
2023-01-03T00:12:56.932Z,67.41
2023-01-03T00:18:17.804Z,67.50
2023-01-03T00:23:38.885Z,67.73
2023-01-03T00:29:00.256Z,67.48
2023-01-03T00:34:21.412Z,67.86
2023-01-03T00:39:42.150Z,67.67
2023-01-03T00:45:03.093Z,67.77
2023-01-03T00:50:23.756Z,67.25
2023-01-03T00:55:44.493Z,67.45
2023-01-03T01:01:14.441Z,67.34
2023-01-03T01:06:40.273Z,67.10
2023-01-03T01:12:01.458Z,66.99
2023-01-03T01:17:23.093Z,67.07
2023-01-03T01:22:44.031Z,67.29
2023-01-03T01:28:04.871Z,67.02
2023-01-03T01:33:25.708Z,67.47
2023-01-03T01:38:48.163Z,66.48
2023-01-03T01:44:46.934Z,67.01
2023-01-03T01:50:17.875Z,67.12
2023-01-03T01:55:52.977Z,66.92
2023-01-03T02:01:16.289Z,67.15
2023-01-03T02:06:39.231Z,66.90
2023-01-03T02:12:45.920Z,66.82
2023-01-03T02:18:48.221Z,67.20
2023-01-03T02:24:42.131Z,67.33
2023-01-03T02:30:18.192Z,67.00
2023-01-03T02:35:53.904Z,67.36
2023-01-03T02:41:32.417Z,66.80
2023-01-03T02:47:05.221Z,67.31
2023-01-03T02:52:29.279Z,67.04
2023-01-03T02:58:00.972Z,67.39
2023-01-03T03:03:31.596Z,67.16
2023-01-03T03:08:52.463Z,67.02
2023-01-03T03:14:29.004Z,67.26
2023-01-03T03:20:13.789Z,66.76
2023-01-03T03:25:49.522Z,67.26
2023-01-03T03:31:19.551Z,67.42
2023-01-03T03:37:28.631Z,67.21
2023-01-03T03:43:27.318Z,67.26
2023-01-03T03:49:21.171Z,67.11
2023-01-03T03:54:47.161Z,67.27
2023-01-03T04:00:15.579Z,67.51
2023-01-03T04:05:46.189Z,66.94
2023-01-03T04:11:07.265Z,67.33
2023-01-03T04:16:27.964Z,67.14
2023-01-03T04:21:48.704Z,66.70
2023-01-03T04:27:09.336Z,66.88
2023-01-03T04:32:29.967Z,67.29
2023-01-03T04:37:50.759Z,67.61
2023-01-03T04:43:30.025Z,67.24
2023-01-03T04:48:50.768Z,67.30
2023-01-03T04:54:11.456Z,67.57
2023-01-03T04:59:32.213Z,67.00
2023-01-03T05:04:52.942Z,66.82
2023-01-03T05:10:13.598Z,67.09
2023-01-03T05:15:39.371Z,66.94
2023-01-03T05:21:34.137Z,67.28
2023-01-03T05:26:55.430Z,66.87
2023-01-03T05:32:16.165Z,67.05
2023-01-03T05:37:36.781Z,66.82
2023-01-03T05:42:57.652Z,66.62
2023-01-03T05:48:19.227Z,66.79
2023-01-03T05:53:39.817Z,67.06
2023-01-03T05:59:01.067Z,67.02
2023-01-03T06:04:21.977Z,66.79
2023-01-03T06:09:42.698Z,67.02
2023-01-03T06:15:04.059Z,67.16
2023-01-03T06:20:28.650Z,67.33
2023-01-03T06:25:49.570Z,66.75
2023-01-03T06:31:10.998Z,66.92
2023-01-03T06:36:34.645Z,66.76
2023-01-03T06:41:55.779Z,66.51
2023-01-03T06:47:35.061Z,66.98
2023-01-03T06:53:13.859Z,66.59
2023-01-03T06:58:35.411Z,67.08
2023-01-03T07:03:56.037Z,66.94
2023-01-03T07:09:18.124Z,67.01
2023-01-03T07:14:38.814Z,67.04
2023-01-03T07:19:59.633Z,66.87
2023-01-03T07:25:21.380Z,66.96
2023-01-03T07:30:44.995Z,67.11
2023-01-03T07:36:12.048Z,67.05
2023-01-03T07:41:53.158Z,68.53
2023-01-03T07:47:14.393Z,66.71
2023-01-03T07:52:35.507Z,66.58
2023-01-03T07:57:56.444Z,66.75
2023-01-03T08:03:17.602Z,66.67
2023-01-03T08:08:38.867Z,66.92
2023-01-03T08:14:00.155Z,66.75
2023-01-03T08:19:21.225Z,66.92
2023-01-03T08:24:42.024Z,67.11
2023-01-03T08:30:02.875Z,66.80
2023-01-03T08:35:26.453Z,66.90
2023-01-03T08:40:48.117Z,67.13
2023-01-03T08:46:11.502Z,67.52
2023-01-03T08:51:32.431Z,67.23
2023-01-03T08:56:53.497Z,67.45
2023-01-03T09:02:14.170Z,67.65
2023-01-03T09:07:35.466Z,67.21
2023-01-03T09:12:56.156Z,67.54
2023-01-03T09:18:16.833Z,67.14
2023-01-03T09:23:38.080Z,67.33
2023-01-03T09:28:58.827Z,67.17
2023-01-03T09:34:19.687Z,67.32
2023-01-03T09:39:40.711Z,66.53
2023-01-03T09:45:02.957Z,66.88
2023-01-03T09:50:39.459Z,66.39
2023-01-03T09:56:31.648Z,66.76
2023-01-03T10:02:14.256Z,66.22
2023-01-03T10:08:08.955Z,66.55
2023-01-03T10:13:41.909Z,66.65
2023-01-03T10:19:11.957Z,66.25
2023-01-03T10:24:41.622Z,66.00
2023-01-03T10:30:06.533Z,66.06
2023-01-03T10:35:36.160Z,65.96
2023-01-03T10:40:59.937Z,65.37
2023-01-03T10:46:22.798Z,65.46
2023-01-03T10:51:54.600Z,65.44
2023-01-03T10:57:53.349Z,64.15
2023-01-03T11:03:17.320Z,64.80
2023-01-03T11:08:42.888Z,64.91
2023-01-03T11:14:19.732Z,65.27
2023-01-03T11:19:40.723Z,64.88
2023-01-03T11:25:11.591Z,65.30
2023-01-03T11:30:37.971Z,65.23
2023-01-03T11:36:18.213Z,64.82
2023-01-03T11:42:06.774Z,64.47
2023-01-03T11:47:41.126Z,63.43
2023-01-03T11:53:43.498Z,63.03
2023-01-03T11:59:23.306Z,62.89
2023-01-03T12:05:15.380Z,62.97
2023-01-03T12:10:42.752Z,62.91
2023-01-03T12:16:39.475Z,63.68
2023-01-03T12:22:17.877Z,63.90
2023-01-03T12:27:44.715Z,62.71
2023-01-03T12:33:32.029Z,61.80
2023-01-03T12:39:20.596Z,61.69
2023-01-03T12:44:45.229Z,62.40
2023-01-03T12:50:31.207Z,62.15
2023-01-03T12:56:26.938Z,62.50
2023-01-03T13:01:58.745Z,62.03
2023-01-03T13:07:31.509Z,62.52
2023-01-03T13:12:53.228Z,62.38
2023-01-03T13:18:22.982Z,63.61
2023-01-03T13:23:59.801Z,62.00
2023-01-03T13:29:33.000Z,61.99
2023-01-03T13:34:56.758Z,62.01
2023-01-03T13:40:59.800Z,62.11
2023-01-03T13:46:32.959Z,62.61
2023-01-03T13:51:54.781Z,61.95
2023-01-03T13:57:37.430Z,62.38
2023-01-03T14:03:21.552Z,61.78
2023-01-03T14:09:06.145Z,62.16
2023-01-03T14:14:30.789Z,61.86
2023-01-03T14:19:55.847Z,61.87
2023-01-03T14:25:49.097Z,65.76
2023-01-03T14:31:18.794Z,62.52
2023-01-03T14:36:47.614Z,62.40
2023-01-03T14:42:16.430Z,61.70
2023-01-03T14:47:42.904Z,62.03
2023-01-03T14:53:03.734Z,61.64
2023-01-03T14:58:39.510Z,61.86
2023-01-03T15:04:00.758Z,61.80
2023-01-03T15:09:23.152Z,61.61
2023-01-03T15:14:43.893Z,61.64
2023-01-03T15:20:08.764Z,61.60
2023-01-03T15:25:37.679Z,61.80
2023-01-03T15:31:15.246Z,62.34
2023-01-03T15:36:37.369Z,61.64
2023-01-03T15:42:43.453Z,61.49
2023-01-03T15:48:04.166Z,61.59
2023-01-03T15:53:43.769Z,61.36
2023-01-03T15:59:09.434Z,61.54
2023-01-03T16:04:30.495Z,61.62
2023-01-03T16:09:51.255Z,61.41
2023-01-03T16:15:19.950Z,61.58
2023-01-03T16:20:41.444Z,61.85
2023-01-03T16:26:05.132Z,61.73
2023-01-03T16:31:32.003Z,61.97
2023-01-03T16:36:53.499Z,62.12
2023-01-03T16:42:15.220Z,61.58
2023-01-03T16:47:36.091Z,61.78
2023-01-03T16:52:57.302Z,62.10
2023-01-03T16:58:20.541Z,62.20
2023-01-03T17:03:42.582Z,61.98
2023-01-03T17:09:05.871Z,62.06
2023-01-03T17:14:26.722Z,62.00
2023-01-03T17:20:05.640Z,62.01
2023-01-03T17:25:27.468Z,62.47
2023-01-03T17:30:51.141Z,62.66
2023-01-03T17:36:15.176Z,62.10
2023-01-03T17:41:56.223Z,62.33
2023-01-03T17:47:35.770Z,63.51
2023-01-03T17:52:58.757Z,64.13
2023-01-03T17:58:31.897Z,62.94
2023-01-03T18:03:52.868Z,62.83
2023-01-03T18:09:16.015Z,62.63
2023-01-03T18:14:36.618Z,62.25
2023-01-03T18:19:59.119Z,62.22
2023-01-03T18:25:25.513Z,62.31
2023-01-03T18:30:47.612Z,62.48
2023-01-03T18:36:22.287Z,61.97
2023-01-03T18:41:46.273Z,62.13
2023-01-03T18:47:12.367Z,62.44
2023-01-03T18:52:39.284Z,62.50
2023-01-03T18:58:29.998Z,62.54
2023-01-03T19:03:51.095Z,62.65
2023-01-03T19:09:24.409Z,62.84
2023-01-03T19:14:47.038Z,62.62
2023-01-03T19:20:08.332Z,62.97
2023-01-03T19:25:30.391Z,63.07
2023-01-03T19:30:52.151Z,63.14
2023-01-03T19:36:20.503Z,62.33
2023-01-03T19:42:05.922Z,62.61
2023-01-03T19:47:26.976Z,62.17
2023-01-03T19:52:48.532Z,62.03
2023-01-03T19:58:24.249Z,62.52
2023-01-03T20:03:45.661Z,62.33
2023-01-03T20:09:06.615Z,62.56
2023-01-03T20:14:30.973Z,62.62
2023-01-03T20:19:52.654Z,62.31
2023-01-03T20:25:31.609Z,62.78
2023-01-03T20:30:52.425Z,62.78
2023-01-03T20:36:23.027Z,62.04
2023-01-03T20:41:44.539Z,62.15
2023-01-03T20:47:05.467Z,62.57
2023-01-03T20:52:25.975Z,62.59
2023-01-03T20:57:47.713Z,63.29
2023-01-03T21:03:08.967Z,62.41
2023-01-03T21:08:50.891Z,62.45
2023-01-03T21:14:11.938Z,62.08
2023-01-03T21:19:32.760Z,62.75
2023-01-03T21:24:57.541Z,62.68
2023-01-03T21:30:21.014Z,62.11
2023-01-03T21:35:42.195Z,62.22
2023-01-03T21:41:02.851Z,62.58
2023-01-03T21:46:25.239Z,63.26
2023-01-03T21:51:46.269Z,62.46
2023-01-03T21:57:07.203Z,62.44
2023-01-03T22:02:46.655Z,62.83
2023-01-03T22:08:07.634Z,62.89
2023-01-03T22:13:28.722Z,62.59
2023-01-03T22:18:49.696Z,62.31
2023-01-03T22:24:10.659Z,62.60
2023-01-03T22:29:31.377Z,63.10
2023-01-03T22:34:52.464Z,63.95
2023-01-03T22:40:16.470Z,64.05
2023-01-03T22:45:38.812Z,64.04
2023-01-03T22:51:08.128Z,64.06
2023-01-03T22:56:28.857Z,64.46
2023-01-03T23:01:50.434Z,64.21
2023-01-03T23:07:11.772Z,64.90
2023-01-03T23:12:51.111Z,65.35
2023-01-03T23:18:11.794Z,65.20
2023-01-03T23:23:32.661Z,64.65
2023-01-03T23:28:57.518Z,65.60
2023-01-03T23:34:18.599Z,65.29
2023-01-03T23:39:40.064Z,65.02
2023-01-03T23:45:00.828Z,65.38
2023-01-03T23:50:21.677Z,65.74
2023-01-03T23:55:43.072Z,65.99
